Portada
METAR-TAF:

METAR-TAF

Aeroports :

Curaçao, Antilles Neerlandeses

latitud: 12-12N, longitud: 068-58W, altitud: 9 m

Observació

L'informe es va fer fa 28 minuts, a les 23:00 UTC
Vent 11 kt del Est
Temperatura 28°C
Humitat 74%
Pressió 1013 hPa
Visibilitat 10 km o més

METAR: TNCC 242300Z AUTO 10011KT 9999 NSC 28/23 Q1013

Hora: 19:28 (23:28 UTC)

Pronòstic

L'informe es va fer fa 7 hores i 28 minuts, a les 16:00 UTC
Pronòstic vàlid del 24 a les 18 UTC al 25 a les 18 UTC
Vent 16 kt del Est
Visibilitat 10 km o més
Núvols disperses a una alçada de 2000 ft

TAF: TNCC 241600Z 2418/2518 10016KT 9999 SCT020

Observacions i pronòstics meteorològics de més de 4000 aeroports (METAR i TAF).

Les estacions disponibles són els punts grocs i vermells al mapa.

Posi el ratolí al punt desitjat per veure el nom de l'estació.

Feu clic per veure les observacions i els pronòstics meteorològics.

Per canviar el mapa: feu clic els botons verds amb una creu de color negre per apropar; al botó verd amb un guió per allunyar la imatge; o en les fletxes verdes per a mapes adjacents.


METAR-TAF: